createdAt,value
2023-02-08T00:02:03.223Z,4.30
2023-02-08T00:04:51.688Z,4.20
2023-02-08T00:07:40.124Z,4.10
2023-02-08T00:10:28.711Z,4.10
2023-02-08T00:13:17.215Z,4.10
2023-02-08T00:16:06.693Z,4.10
2023-02-08T00:18:56.668Z,4.00
2023-02-08T00:21:45.151Z,3.80
2023-02-08T00:24:34.439Z,3.40
2023-02-08T00:27:22.868Z,3.30
2023-02-08T00:30:12.254Z,2.80
2023-02-08T00:35:51.631Z,2.80
2023-02-08T00:38:40.216Z,3.00
2023-02-08T00:41:28.757Z,3.00
2023-02-08T00:44:17.282Z,3.00
2023-02-08T00:47:05.931Z,3.10
2023-02-08T00:49:54.510Z,2.80
2023-02-08T00:52:44.414Z,3.00
2023-02-08T00:55:32.925Z,3.00
2023-02-08T00:58:21.352Z,3.00
2023-02-08T01:01:10.044Z,3.10
2023-02-08T01:03:58.581Z,3.10
2023-02-08T01:06:47.057Z,3.20
2023-02-08T01:09:37.182Z,3.30
2023-02-08T01:12:25.711Z,3.30
2023-02-08T01:15:14.339Z,3.00
2023-02-08T01:18:02.992Z,3.00
2023-02-08T01:20:51.443Z,3.10
2023-02-08T01:23:41.033Z,3.10
2023-02-08T01:26:31.554Z,3.20
2023-02-08T01:29:20.126Z,3.10
2023-02-08T01:32:08.593Z,3.00
2023-02-08T01:34:57.066Z,2.90
2023-02-08T01:37:45.520Z,2.20
2023-02-08T01:40:34.005Z,2.10
2023-02-08T01:43:25.996Z,2.50
2023-02-08T01:46:14.438Z,2.60
2023-02-08T01:49:07.240Z,2.70
2023-02-08T01:51:59.063Z,2.50
2023-02-08T01:54:51.828Z,2.30
2023-02-08T01:57:40.574Z,2.30
2023-02-08T02:00:32.267Z,2.40
2023-02-08T02:03:23.282Z,2.40
2023-02-08T02:06:15.314Z,2.20
2023-02-08T02:09:11.467Z,2.20
2023-02-08T02:12:01.110Z,1.90
2023-02-08T02:14:49.909Z,1.70
2023-02-08T02:17:41.378Z,2.00
2023-02-08T02:20:44.482Z,2.30
2023-02-08T02:24:12.646Z,2.50
2023-02-08T02:27:32.804Z,2.80
2023-02-08T02:31:03.142Z,2.80
2023-02-08T02:34:04.256Z,2.50
2023-02-08T02:36:59.054Z,2.10
2023-02-08T02:39:55.559Z,1.80
2023-02-08T02:43:15.005Z,1.90
2023-02-08T02:46:08.568Z,2.00
2023-02-08T02:49:05.635Z,2.10
2023-02-08T02:51:59.802Z,2.30
2023-02-08T02:54:53.001Z,2.40
2023-02-08T02:57:44.939Z,2.40
2023-02-08T03:00:34.825Z,2.50
2023-02-08T03:03:26.683Z,2.60
2023-02-08T03:06:24.479Z,2.70
2023-02-08T03:09:43.355Z,2.80
2023-02-08T03:12:41.462Z,2.70
2023-02-08T03:15:38.956Z,2.50
2023-02-08T03:18:36.429Z,2.30
2023-02-08T03:21:36.747Z,2.30
2023-02-08T03:24:30.215Z,2.30
2023-02-08T03:27:28.829Z,2.50
2023-02-08T03:30:21.691Z,2.60
2023-02-08T03:33:16.067Z,2.80
2023-02-08T03:36:09.758Z,2.90
2023-02-08T03:39:02.459Z,2.90
2023-02-08T03:41:54.935Z,3.00
2023-02-08T03:44:46.583Z,3.00
2023-02-08T03:47:38.878Z,3.10
2023-02-08T03:50:31.853Z,3.00
2023-02-08T03:53:23.145Z,3.10
2023-02-08T03:56:18.914Z,3.00
2023-02-08T03:59:12.257Z,3.00
2023-02-08T04:02:02.790Z,3.10
2023-02-08T04:04:52.715Z,3.10
2023-02-08T04:07:41.156Z,3.00
2023-02-08T04:10:29.764Z,2.90
2023-02-08T04:13:19.539Z,3.00
2023-02-08T04:16:08.554Z,2.90
2023-02-08T04:18:57.032Z,2.80
2023-02-08T04:21:45.472Z,2.90
2023-02-08T04:24:34.064Z,2.90
2023-02-08T04:27:22.544Z,2.90
2023-02-08T04:30:13.563Z,2.90
2023-02-08T04:33:01.995Z,2.90
2023-02-08T04:35:50.483Z,2.80
2023-02-08T04:38:39.239Z,3.60
2023-02-08T04:41:27.806Z,2.80
2023-02-08T04:44:16.294Z,2.80
2023-02-08T04:47:06.360Z,2.70
2023-02-08T04:49:54.775Z,2.30
2023-02-08T04:52:43.261Z,2.30
2023-02-08T04:55:31.771Z,2.00
2023-02-08T04:58:20.444Z,2.00
2023-02-08T05:01:10.829Z,1.80
2023-02-08T05:04:00.645Z,1.80
2023-02-08T05:06:49.046Z,1.40
2023-02-08T05:09:37.487Z,1.00
2023-02-08T05:12:25.917Z,1.20
2023-02-08T05:15:14.420Z,2.60
2023-02-08T05:18:02.877Z,1.50
2023-02-08T05:20:58.262Z,1.60
2023-02-08T05:23:46.931Z,1.70
2023-02-08T05:26:35.467Z,1.80
2023-02-08T05:29:23.879Z,1.70
2023-02-08T05:32:12.698Z,1.60
2023-02-08T05:35:01.231Z,1.50
2023-02-08T05:37:51.114Z,1.60
2023-02-08T05:40:39.873Z,1.10
2023-02-08T05:43:28.645Z,1.20
2023-02-08T05:46:17.124Z,1.40
2023-02-08T05:49:05.661Z,1.50
2023-02-08T05:51:54.162Z,1.30
2023-02-08T05:54:43.965Z,1.00
2023-02-08T05:57:35.458Z,0.60
2023-02-08T06:00:24.244Z,0.10
2023-02-08T06:03:12.989Z,0.10
2023-02-08T06:06:02.160Z,0.00
2023-02-08T06:08:50.575Z,-0.30
2023-02-08T06:11:40.457Z,-0.30
2023-02-08T06:14:28.934Z,-0.50
2023-02-08T06:17:17.373Z,-0.90
2023-02-08T06:20:06.371Z,-1.10
2023-02-08T06:22:56.049Z,-1.00
2023-02-08T06:25:44.485Z,-0.60
2023-02-08T06:28:34.271Z,-0.10
2023-02-08T06:31:22.877Z,0.60
2023-02-08T06:34:11.340Z,0.70
2023-02-08T06:37:02.192Z,0.50
2023-02-08T06:39:50.674Z,0.60
2023-02-08T06:42:39.310Z,0.90
2023-02-08T06:45:29.263Z,1.40
2023-02-08T06:48:17.794Z,1.40
2023-02-08T06:51:06.587Z,1.70
2023-02-08T06:53:55.077Z,2.00
2023-02-08T06:56:43.535Z,2.30
2023-02-08T06:59:32.013Z,2.10
2023-02-08T07:02:23.051Z,2.20
2023-02-08T07:05:11.497Z,2.40
2023-02-08T07:07:59.908Z,2.40
2023-02-08T07:10:48.648Z,2.40
2023-02-08T07:13:37.500Z,2.10
2023-02-08T07:16:26.053Z,1.60
2023-02-08T07:19:15.886Z,1.30
2023-02-08T07:22:08.264Z,1.40
2023-02-08T07:24:56.809Z,1.50
2023-02-08T07:27:45.209Z,1.60
2023-02-08T07:30:33.743Z,1.50
2023-02-08T07:33:22.945Z,1.50
2023-02-08T07:36:13.519Z,1.30
2023-02-08T07:39:02.520Z,1.30
2023-02-08T07:41:51.025Z,1.10
2023-02-08T07:44:40.342Z,1.20
2023-02-08T07:47:28.845Z,1.00
2023-02-08T07:50:17.736Z,1.10
2023-02-08T07:53:07.618Z,0.60
2023-02-08T07:55:56.079Z,0.40
2023-02-08T07:58:44.543Z,0.70
2023-02-08T08:01:33.010Z,1.30
2023-02-08T08:04:22.077Z,1.90
2023-02-08T08:07:10.742Z,2.40
2023-02-08T08:10:00.726Z,2.60
2023-02-08T08:12:49.224Z,2.80
2023-02-08T08:15:37.686Z,2.70
2023-02-08T08:18:26.146Z,2.70
2023-02-08T08:21:15.427Z,2.60
2023-02-08T08:24:03.934Z,2.70
2023-02-08T08:26:53.820Z,3.00
2023-02-08T08:29:42.243Z,3.30
2023-02-08T08:32:30.687Z,3.40
2023-02-08T08:35:19.335Z,3.40
2023-02-08T08:38:07.789Z,3.60
2023-02-08T08:40:56.237Z,3.90
2023-02-08T08:43:46.547Z,4.20
2023-02-08T08:46:35.059Z,4.40
2023-02-08T08:49:23.596Z,4.60
2023-02-08T08:52:12.845Z,4.80
2023-02-08T08:55:01.336Z,5.00
2023-02-08T08:57:44.653Z,5.20
2023-02-08T09:00:34.537Z,5.30
2023-02-08T09:03:23.038Z,5.50
2023-02-08T09:06:11.960Z,5.60
2023-02-08T09:09:00.410Z,5.70
2023-02-08T09:11:49.796Z,5.70
2023-02-08T09:14:38.239Z,5.60
2023-02-08T09:17:28.133Z,5.60
2023-02-08T09:20:16.852Z,5.70
2023-02-08T09:23:05.275Z,5.80
2023-02-08T09:25:53.878Z,5.90
2023-02-08T09:28:42.431Z,6.10
2023-02-08T09:31:32.755Z,6.30
2023-02-08T09:34:22.678Z,6.40
2023-02-08T09:37:11.123Z,6.60
2023-02-08T09:40:00.561Z,6.80
2023-02-08T09:42:54.664Z,6.90
2023-02-08T09:45:59.804Z,7.10
2023-02-08T09:48:51.602Z,7.30
2023-02-08T09:51:44.976Z,7.40
2023-02-08T09:54:37.467Z,7.30
2023-02-08T09:57:30.470Z,7.40
2023-02-08T10:03:24.878Z,7.80
2023-02-08T10:06:15.937Z,7.40
2023-02-08T10:09:09.295Z,7.60
2023-02-08T10:12:11.478Z,7.80
2023-02-08T10:15:06.773Z,8.10
2023-02-08T10:18:24.729Z,8.30
2023-02-08T10:21:26.968Z,8.40
2023-02-08T10:24:35.549Z,8.50
2023-02-08T10:27:30.213Z,8.70
2023-02-08T10:30:31.952Z,8.80
2023-02-08T10:33:27.647Z,9.00
2023-02-08T10:36:19.634Z,9.00
2023-02-08T10:39:18.143Z,9.10
2023-02-08T10:42:14.342Z,9.20
2023-02-08T10:45:23.827Z,9.30
2023-02-08T10:48:22.077Z,9.30
2023-02-08T10:51:15.385Z,9.30
2023-02-08T10:54:04.646Z,9.30
2023-02-08T10:56:57.574Z,9.40
2023-02-08T10:59:52.793Z,9.30
2023-02-08T11:05:36.042Z,8.70
2023-02-08T11:08:27.763Z,8.70
2023-02-08T11:11:16.487Z,8.80
2023-02-08T11:14:14.818Z,9.00
2023-02-08T11:17:04.879Z,9.10
2023-02-08T11:19:54.000Z,9.30
2023-02-08T11:22:47.176Z,9.50
2023-02-08T11:25:38.859Z,9.50
2023-02-08T11:28:30.204Z,9.60
2023-02-08T11:31:22.276Z,9.70
2023-02-08T11:34:12.903Z,9.70
2023-02-08T11:37:03.944Z,10.80
2023-02-08T11:39:55.320Z,9.80
2023-02-08T11:42:45.093Z,10.00
2023-02-08T11:45:36.350Z,10.00
2023-02-08T11:48:27.924Z,10.10
2023-02-08T11:51:29.982Z,10.20
2023-02-08T11:54:40.635Z,10.10
2023-02-08T11:57:29.133Z,10.10
2023-02-08T12:00:21.167Z,10.20
2023-02-08T12:03:16.018Z,10.40
2023-02-08T12:06:26.898Z,10.50
2023-02-08T12:09:28.501Z,10.40
2023-02-08T12:12:26.892Z,10.40
2023-02-08T12:15:24.018Z,10.60
2023-02-08T12:18:29.292Z,10.70
2023-02-08T12:21:21.613Z,10.80
2023-02-08T12:24:21.861Z,10.80
2023-02-08T12:27:27.597Z,10.80
2023-02-08T12:30:26.665Z,10.90
2023-02-08T12:33:29.240Z,11.10
2023-02-08T12:36:36.616Z,11.20
2023-02-08T12:39:53.574Z,11.20
2023-02-08T12:42:55.817Z,11.40
2023-02-08T12:46:08.317Z,11.50
2023-02-08T12:49:19.908Z,11.20
2023-02-08T12:52:22.092Z,11.00
2023-02-08T12:55:18.901Z,11.20
2023-02-08T12:58:23.429Z,11.00
2023-02-08T13:01:15.999Z,11.00
2023-02-08T13:04:09.120Z,11.20
2023-02-08T13:07:00.557Z,11.10
2023-02-08T13:09:57.571Z,11.10
2023-02-08T13:12:53.269Z,11.30
2023-02-08T13:15:47.004Z,11.10
2023-02-08T13:18:39.427Z,11.10
2023-02-08T13:21:31.637Z,11.00
2023-02-08T13:24:28.640Z,11.10
2023-02-08T13:27:18.799Z,11.00
2023-02-08T13:30:17.481Z,11.00
2023-02-08T13:33:16.127Z,11.50
2023-02-08T13:36:05.326Z,10.50
2023-02-08T13:38:54.807Z,10.20
2023-02-08T13:41:53.146Z,10.20
2023-02-08T13:44:41.886Z,10.00
2023-02-08T13:47:35.323Z,9.60
2023-02-08T13:50:45.946Z,9.30
2023-02-08T13:54:11.778Z,9.30
2023-02-08T13:57:00.220Z,9.50
2023-02-08T14:00:24.783Z,9.40
2023-02-08T14:03:23.394Z,9.10
2023-02-08T14:06:22.524Z,8.80
2023-02-08T14:09:20.023Z,8.70
2023-02-08T14:15:27.493Z,8.40
2023-02-08T14:18:27.811Z,8.30
2023-02-08T14:21:30.775Z,8.10
2023-02-08T14:24:23.740Z,8.00
2023-02-08T14:27:21.529Z,8.70
2023-02-08T14:30:24.204Z,7.70
2023-02-08T14:33:20.515Z,7.60
2023-02-08T14:36:24.129Z,7.50
2023-02-08T14:39:26.301Z,7.50
2023-02-08T14:42:15.565Z,7.50
2023-02-08T14:45:06.378Z,7.40
2023-02-08T14:48:05.193Z,7.30
2023-02-08T14:51:02.826Z,7.30
2023-02-08T14:53:55.450Z,7.30
2023-02-08T14:56:54.237Z,7.50
2023-02-08T14:59:43.211Z,7.70
2023-02-08T15:02:32.274Z,7.70
2023-02-08T15:05:26.119Z,7.80
2023-02-08T15:08:22.234Z,7.90
2023-02-08T15:11:23.872Z,7.90
2023-02-08T15:14:21.446Z,7.90
2023-02-08T15:17:23.064Z,7.30
2023-02-08T15:20:23.499Z,7.70
2023-02-08T15:23:21.513Z,7.60
2023-02-08T15:26:22.839Z,7.60
2023-02-08T15:29:20.960Z,7.30
2023-02-08T15:32:14.732Z,7.20
2023-02-08T15:35:05.167Z,7.20
2023-02-08T15:37:54.364Z,7.10
2023-02-08T15:40:44.649Z,7.10
2023-02-08T15:43:34.341Z,7.10
2023-02-08T15:46:25.803Z,7.00
2023-02-08T15:49:17.425Z,7.00
2023-02-08T15:52:08.371Z,7.00
2023-02-08T15:54:57.091Z,6.90
2023-02-08T15:57:55.039Z,6.90
2023-02-08T16:00:45.999Z,6.90
2023-02-08T16:03:36.707Z,6.80
2023-02-08T16:06:27.398Z,6.70
2023-02-08T16:09:20.175Z,6.70
2023-02-08T16:12:21.737Z,7.30
2023-02-08T16:15:36.316Z,6.60
2023-02-08T16:18:41.593Z,6.50
2023-02-08T16:21:35.290Z,6.50
2023-02-08T16:24:26.406Z,6.40
2023-02-08T16:27:25.510Z,6.40
2023-02-08T16:30:18.981Z,6.40
2023-02-08T16:33:10.382Z,6.30
2023-02-08T16:36:02.051Z,6.30
2023-02-08T16:39:23.302Z,6.20
2023-02-08T16:42:28.523Z,6.10
2023-02-08T16:45:20.544Z,6.10
2023-02-08T16:48:31.382Z,6.00
2023-02-08T16:51:25.488Z,6.00
2023-02-08T16:54:18.153Z,6.00
2023-02-08T16:57:06.867Z,6.00
2023-02-08T16:59:56.751Z,6.00
2023-02-08T17:02:45.390Z,6.10
2023-02-08T17:05:39.080Z,6.00
2023-02-08T17:08:27.905Z,6.00
2023-02-08T17:11:16.369Z,6.00
2023-02-08T17:14:05.783Z,5.90
2023-02-08T17:16:54.237Z,5.90
2023-02-08T17:19:44.489Z,5.90
2023-02-08T17:22:34.386Z,5.80
2023-02-08T17:25:23.925Z,5.80
2023-02-08T17:28:17.291Z,5.70
2023-02-08T17:31:06.238Z,5.70
2023-02-08T17:33:55.622Z,5.60
2023-02-08T17:36:44.058Z,5.70
2023-02-08T17:39:34.038Z,5.60
2023-02-08T17:42:22.537Z,5.60
2023-02-08T17:45:11.634Z,4.70
2023-02-08T17:48:01.551Z,5.60
2023-02-08T17:50:51.052Z,5.50
2023-02-08T17:53:40.948Z,5.60
2023-02-08T17:56:35.269Z,5.60
2023-02-08T17:59:23.705Z,5.50
2023-02-08T18:02:12.165Z,5.50
2023-02-08T18:05:00.618Z,5.50
2023-02-08T18:07:49.212Z,5.50
2023-02-08T18:10:37.719Z,5.50
2023-02-08T18:13:27.624Z,5.50
2023-02-08T18:16:18.375Z,5.50
2023-02-08T18:19:07.021Z,5.40
2023-02-08T18:21:55.407Z,5.40
2023-02-08T18:24:43.870Z,5.40
2023-02-08T18:27:32.817Z,5.40
2023-02-08T18:30:22.931Z,5.40
2023-02-08T18:33:12.533Z,5.40
2023-02-08T18:36:01.012Z,5.40
2023-02-08T18:38:51.496Z,5.50
2023-02-08T18:41:40.007Z,5.40
2023-02-08T18:44:28.511Z,5.40
2023-02-08T18:47:18.323Z,5.40
2023-02-08T18:50:08.973Z,5.40
2023-02-08T18:52:57.488Z,5.40
2023-02-08T18:55:53.677Z,5.40
2023-02-08T18:58:42.573Z,5.30
2023-02-08T19:01:31.017Z,5.30
2023-02-08T19:04:20.892Z,5.20
2023-02-08T19:07:09.336Z,5.30
2023-02-08T19:09:57.930Z,5.30
2023-02-08T19:12:46.427Z,5.20
2023-02-08T19:15:37.098Z,5.10
2023-02-08T19:18:25.506Z,5.10
2023-02-08T19:21:17.362Z,5.10
2023-02-08T19:24:06.375Z,5.20
2023-02-08T19:26:54.852Z,5.20
2023-02-08T19:29:44.838Z,5.20
2023-02-08T19:32:33.307Z,5.20
2023-02-08T19:35:22.024Z,5.20
2023-02-08T19:38:12.050Z,5.20
2023-02-08T19:41:00.564Z,5.20
2023-02-08T19:43:49.104Z,5.10
2023-02-08T19:46:39.136Z,5.10
2023-02-08T19:49:28.573Z,5.20
2023-02-08T19:52:20.698Z,5.20
2023-02-08T19:55:11.062Z,5.20
2023-02-08T19:57:59.532Z,5.20
2023-02-08T20:00:48.227Z,5.20
2023-02-08T20:03:36.695Z,5.10
2023-02-08T20:06:28.182Z,5.10
2023-02-08T20:09:17.438Z,5.20
2023-02-08T20:12:07.951Z,5.40
2023-02-08T20:14:56.599Z,3.90
2023-02-08T20:17:45.713Z,5.60
2023-02-08T20:20:34.311Z,5.60
2023-02-08T20:23:23.451Z,5.50
2023-02-08T20:26:14.020Z,5.60
2023-02-08T20:29:04.670Z,5.60
2023-02-08T20:31:55.733Z,5.50
2023-02-08T20:34:54.021Z,5.60
2023-02-08T20:37:47.444Z,5.60
2023-02-08T20:40:35.902Z,5.30
2023-02-08T20:43:24.303Z,5.20
2023-02-08T20:46:17.445Z,5.20
2023-02-08T20:49:07.782Z,5.10
2023-02-08T20:51:56.332Z,5.10
2023-02-08T20:54:44.745Z,5.00
2023-02-08T20:57:33.182Z,4.90
2023-02-08T21:00:27.972Z,4.60
2023-02-08T21:03:23.150Z,4.60
2023-02-08T21:06:15.646Z,4.70
2023-02-08T21:09:07.244Z,4.60
2023-02-08T21:11:55.760Z,4.50
2023-02-08T21:14:44.612Z,4.40
2023-02-08T21:17:33.097Z,4.30
2023-02-08T21:20:23.007Z,4.30
2023-02-08T21:23:11.476Z,4.30
2023-02-08T21:26:00.489Z,4.40
2023-02-08T21:28:49.465Z,4.50
2023-02-08T21:31:38.341Z,4.50
2023-02-08T21:34:26.917Z,4.50
2023-02-08T21:37:16.724Z,4.50
2023-02-08T21:40:05.803Z,4.50
2023-02-08T21:42:54.335Z,4.50
2023-02-08T21:45:42.845Z,4.50
2023-02-08T21:48:31.324Z,4.50
2023-02-08T21:51:37.402Z,4.60
2023-02-08T21:54:42.395Z,4.60
2023-02-08T21:57:37.846Z,4.40
2023-02-08T22:00:26.452Z,4.00
2023-02-08T22:03:15.011Z,4.00
2023-02-08T22:06:20.749Z,3.70
2023-02-08T22:09:09.184Z,4.00
2023-02-08T22:11:58.970Z,4.10
2023-02-08T22:14:48.270Z,4.20
2023-02-08T22:17:36.719Z,4.30
2023-02-08T22:20:25.338Z,4.40
2023-02-08T22:23:13.809Z,4.40
2023-02-08T22:26:07.457Z,4.40
2023-02-08T22:28:57.302Z,4.40
2023-02-08T22:31:45.814Z,4.40
2023-02-08T22:34:34.473Z,3.90
2023-02-08T22:37:22.893Z,3.60
2023-02-08T22:40:12.873Z,3.50
2023-02-08T22:43:01.539Z,3.60
2023-02-08T22:45:59.469Z,3.70
2023-02-08T22:48:48.234Z,3.70
2023-02-08T22:51:37.140Z,3.80
2023-02-08T22:54:26.038Z,3.70
2023-02-08T22:57:14.605Z,3.60
2023-02-08T23:00:03.304Z,3.50
2023-02-08T23:02:53.248Z,3.50
2023-02-08T23:05:42.781Z,3.70
2023-02-08T23:08:31.205Z,3.80
2023-02-08T23:11:20.782Z,3.40
2023-02-08T23:14:09.550Z,3.10
2023-02-08T23:16:57.977Z,2.90
2023-02-08T23:19:47.877Z,2.90
2023-02-08T23:22:38.078Z,2.80
2023-02-08T23:25:26.591Z,2.90
2023-02-08T23:28:15.433Z,3.00
2023-02-08T23:31:06.494Z,3.00
2023-02-08T23:33:55.617Z,3.10
2023-02-08T23:36:45.632Z,3.10
2023-02-08T23:39:34.505Z,3.00
2023-02-08T23:42:29.092Z,3.10
2023-02-08T23:45:17.742Z,3.00
2023-02-08T23:48:06.359Z,3.00
2023-02-08T23:50:58.697Z,3.10
2023-02-08T23:53:48.856Z,2.90
2023-02-08T23:56:37.315Z,2.90
2023-02-08T23:59:25.782Z,3.00
